Youkamaru — JD3772 — position and weather

sailwx.info

Track history (hours):
 
Tides and Currents Weather Stations Pressure Air Temp Water Temp Dewpoint Dewpoint Depression Visibility Wind Speed Wind Dir Waves Ship Positions

Youkamaru

Last reported at 2017-Oct-14 08:35 UTC. Time now 2017-Oct-18 11:16 UTC.
Position N 34°37' E 134°56'.

Length 72 m; draft 4.8 m.

Type: Cargo ship. MMSI: 431005921.

Date/timePositionNaut miles runAvg speedWind from/ knotsBaromVisibWave heightAir tempDewpointWater temp
2017-Oct-14 08:35N 34°37' E 134°56'113.2
2017-Oct-14 08:30N 34°38' E 134°57'713.4
2017-Oct-14 07:59N 34°36' E 135°05'611.8
2017-Oct-14 07:30N 34°37' E 135°12'4 8.7
2017-Oct-14 07:00N 34°41' E 135°15'2 3.4
2017-Oct-14 06:30N 34°42' E 135°15'0 0.0
2017-Oct-13 17:48N 34°42' E 135°15'0 1.1
2017-Oct-13 17:30N 34°42' E 135°15'4 8.4
2017-Oct-13 17:00N 34°38' E 135°15'611.7
2017-Oct-13 16:30N 34°36' E 135°09'611.7
2017-Oct-13 16:00N 34°37' E 135°02'611.5
2017-Oct-13 15:29N 34°37' E 134°54'612.4
2017-Oct-13 15:00N 34°41' E 134°49'0 0.0
2017-Oct-12 23:39N 34°41' E 134°49'610.6
2017-Oct-12 23:07N 34°38' E 134°55'211.8
2017-Oct-12 22:59N 34°38' E 134°57'5 9.1
2017-Oct-12 22:27N 34°37' E 135°03'4 8.4
2017-Oct-12 21:59N 34°33' E 135°05'2110.7
2017-Oct-12 20:02N 34°13' E 134°59'111.0
2017-Oct-12 19:54N 34°11' E 134°59'  
2017-Oct-08 07:02N 34°02' E 135°00'112.2
2017-Oct-08 06:56N 34°03' E 135°00'512.3
2017-Oct-08 06:30N 34°08' E 134°59'713.5
2017-Oct-08 06:00N 34°15' E 134°58'612.3
2017-Oct-08 05:30N 34°21' E 134°59'712.1
2017-Oct-08 04:56N 34°28' E 135°01'511.9
2017-Oct-08 04:29N 34°33' E 135°02'7 9.4
2017-Oct-08 03:41N 34°37' E 134°55'  
2017-Oct-05 05:20N 34°38' E 134°57'4 9.6
2017-Oct-05 04:57N 34°37' E 135°01'4 8.1
2017-Oct-05 04:30N 34°36' E 135°05'611.5
2017-Oct-05 04:01N 34°37' E 135°12'612.4
2017-Oct-05 03:30N 34°39' E 135°19'2 3.1
2017-Oct-05 03:00N 34°39' E 135°21'3 5.1
2017-Oct-05 02:31N 34°37' E 135°19'611.6
2017-Oct-05 02:01N 34°33' E 135°14'611.6
2017-Oct-05 01:29N 34°28' E 135°10'1811.1
2017-Oct-04 23:50N 34°12' E 134°60'411.6
2017-Oct-04 23:29N 34°08' E 135°00'  
Track history (hours):
 
Tides and Currents Weather Stations Pressure Air Temp Water Temp Dewpoint Dewpoint Depression Visibility Wind Speed Wind Dir Waves Ship Positions

Youkamaru

Last reported at 2017-Oct-14 08:35 UTC. Time now 2017-Oct-18 11:16 UTC.
Position N 34°37' E 134°56'.

Length 72 m; draft 4.8 m.

Type: Cargo ship. MMSI: 431005921.

Date/timePositionNaut miles runAvg speedWind from/ knotsBaromVisibWave heightAir tempDewpointWater temp
2017-Oct-14 08:35N 34°37' E 134°56'113.2
2017-Oct-14 08:30N 34°38' E 134°57'713.4
2017-Oct-14 07:59N 34°36' E 135°05'611.8
2017-Oct-14 07:30N 34°37' E 135°12'4 8.7
2017-Oct-14 07:00N 34°41' E 135°15'2 3.4
2017-Oct-14 06:30N 34°42' E 135°15'0 0.0
2017-Oct-13 17:48N 34°42' E 135°15'0 1.1
2017-Oct-13 17:30N 34°42' E 135°15'4 8.4
2017-Oct-13 17:00N 34°38' E 135°15'611.7
2017-Oct-13 16:30N 34°36' E 135°09'611.7
2017-Oct-13 16:00N 34°37' E 135°02'611.5
2017-Oct-13 15:29N 34°37' E 134°54'612.4
2017-Oct-13 15:00N 34°41' E 134°49'0 0.0
2017-Oct-12 23:39N 34°41' E 134°49'610.6
2017-Oct-12 23:07N 34°38' E 134°55'211.8
2017-Oct-12 22:59N 34°38' E 134°57'5 9.1
2017-Oct-12 22:27N 34°37' E 135°03'4 8.4
2017-Oct-12 21:59N 34°33' E 135°05'2110.7
2017-Oct-12 20:02N 34°13' E 134°59'111.0
2017-Oct-12 19:54N 34°11' E 134°59'  
2017-Oct-08 07:02N 34°02' E 135°00'112.2
2017-Oct-08 06:56N 34°03' E 135°00'512.3
2017-Oct-08 06:30N 34°08' E 134°59'713.5
2017-Oct-08 06:00N 34°15' E 134°58'612.3
2017-Oct-08 05:30N 34°21' E 134°59'712.1
2017-Oct-08 04:56N 34°28' E 135°01'511.9
2017-Oct-08 04:29N 34°33' E 135°02'7 9.4
2017-Oct-08 03:41N 34°37' E 134°55'  
2017-Oct-05 05:20N 34°38' E 134°57'4 9.6
2017-Oct-05 04:57N 34°37' E 135°01'4 8.1
2017-Oct-05 04:30N 34°36' E 135°05'611.5
2017-Oct-05 04:01N 34°37' E 135°12'612.4
2017-Oct-05 03:30N 34°39' E 135°19'2 3.1
2017-Oct-05 03:00N 34°39' E 135°21'3 5.1
2017-Oct-05 02:31N 34°37' E 135°19'611.6
2017-Oct-05 02:01N 34°33' E 135°14'611.6
2017-Oct-05 01:29N 34°28' E 135°10'1811.1
2017-Oct-04 23:50N 34°12' E 134°60'411.6
2017-Oct-04 23:29N 34°08' E 135°00'  

Dump ship's entire track history